createdAt,value
2022-07-28T00:00:48.352Z,16.48
2022-07-28T00:03:15.043Z,16.42
2022-07-28T00:05:41.657Z,16.34
2022-07-28T00:08:10.176Z,16.36
2022-07-28T00:10:36.846Z,16.23
2022-07-28T00:13:03.931Z,16.24
2022-07-28T00:15:33.645Z,16.19
2022-07-28T00:18:00.707Z,16.09
2022-07-28T00:20:28.092Z,16.11
2022-07-28T00:22:54.628Z,16.09
2022-07-28T00:25:21.171Z,16.08
2022-07-28T00:27:48.397Z,16.02
2022-07-28T00:30:14.979Z,15.97
2022-07-28T00:32:41.757Z,15.94
2022-07-28T00:35:08.950Z,15.92
2022-07-28T00:37:35.798Z,15.88
2022-07-28T00:40:08.240Z,15.84
2022-07-28T00:42:34.866Z,15.81
2022-07-28T00:45:01.551Z,15.76
2022-07-28T00:47:28.106Z,15.73
2022-07-28T00:50:00.923Z,15.64
2022-07-28T00:52:27.509Z,15.54
2022-07-28T00:54:54.127Z,15.49
2022-07-28T00:57:21.865Z,15.43
2022-07-28T00:59:48.402Z,15.39
2022-07-28T01:02:15.566Z,15.35
2022-07-28T01:04:42.313Z,15.26
2022-07-28T01:07:20.131Z,15.25
2022-07-28T01:10:06.305Z,15.24
2022-07-28T01:12:32.755Z,15.22
2022-07-28T01:15:11.161Z,15.22
2022-07-28T01:17:53.081Z,15.18
2022-07-28T01:20:28.857Z,15.15
2022-07-28T01:23:27.822Z,15.10
2022-07-28T01:26:19.834Z,15.05
2022-07-28T01:29:16.280Z,15.04
2022-07-28T01:31:47.522Z,15.00
2022-07-28T01:34:19.946Z,14.97
2022-07-28T01:36:53.305Z,14.98
2022-07-28T01:39:22.032Z,14.96
2022-07-28T01:41:51.957Z,14.88
2022-07-28T01:44:23.154Z,14.83
2022-07-28T01:46:54.441Z,14.82
2022-07-28T01:49:23.202Z,14.79
2022-07-28T01:51:51.556Z,14.74
2022-07-28T01:54:19.684Z,14.72
2022-07-28T01:56:49.285Z,14.74
2022-07-28T01:59:18.169Z,14.68
2022-07-28T02:01:47.079Z,14.58
2022-07-28T02:04:18.133Z,14.63
2022-07-28T02:06:47.112Z,14.58
2022-07-28T02:09:14.236Z,14.58
2022-07-28T02:11:41.831Z,14.52
2022-07-28T02:14:13.286Z,14.48
2022-07-28T02:16:44.284Z,14.51
2022-07-28T02:19:12.504Z,14.42
2022-07-28T02:21:40.622Z,14.38
2022-07-28T02:24:09.080Z,14.33
2022-07-28T02:26:41.000Z,14.33
2022-07-28T02:29:33.467Z,14.27
2022-07-28T02:32:12.449Z,14.23
2022-07-28T02:34:58.474Z,14.17
2022-07-28T02:37:26.761Z,14.18
2022-07-28T02:40:00.197Z,14.21
2022-07-28T02:42:30.716Z,14.14
2022-07-28T02:45:00.449Z,14.04
2022-07-28T02:47:31.492Z,14.03
2022-07-28T02:50:00.968Z,14.02
2022-07-28T02:52:28.720Z,13.98
2022-07-28T02:54:57.712Z,13.97
2022-07-28T02:57:26.109Z,13.95
2022-07-28T02:59:54.060Z,13.95
2022-07-28T03:02:21.712Z,13.95
2022-07-28T03:05:02.968Z,13.91
2022-07-28T03:07:36.254Z,13.88
2022-07-28T03:10:19.556Z,13.84
2022-07-28T03:13:02.486Z,13.81
2022-07-28T03:15:29.228Z,13.83
2022-07-28T03:17:55.746Z,13.84
2022-07-28T03:20:22.351Z,13.83
2022-07-28T03:22:48.890Z,13.83
2022-07-28T03:25:27.575Z,13.79
2022-07-28T03:27:56.366Z,13.66
2022-07-28T03:30:27.947Z,13.62
2022-07-28T03:33:00.575Z,13.59
2022-07-28T03:35:31.402Z,13.58
2022-07-28T03:38:04.617Z,13.60
2022-07-28T03:40:32.947Z,13.59
2022-07-28T03:43:08.112Z,13.53
2022-07-28T03:45:35.621Z,13.51
2022-07-28T03:48:02.349Z,13.53
2022-07-28T03:50:31.360Z,13.54
2022-07-28T03:52:59.067Z,13.47
2022-07-28T03:55:26.708Z,13.47
2022-07-28T03:57:53.293Z,13.46
2022-07-28T04:00:20.822Z,13.43
2022-07-28T04:02:47.691Z,13.41
2022-07-28T04:05:16.212Z,13.38
2022-07-28T04:07:43.553Z,13.33
2022-07-28T04:10:13.126Z,13.33
2022-07-28T04:12:55.509Z,13.30
2022-07-28T04:15:22.774Z,13.31
2022-07-28T04:17:50.827Z,13.33
2022-07-28T04:20:18.629Z,13.26
2022-07-28T04:22:45.861Z,13.27
2022-07-28T04:25:13.133Z,13.25
2022-07-28T04:27:41.023Z,13.22
2022-07-28T04:30:17.369Z,13.18
2022-07-28T04:32:51.913Z,13.22
2022-07-28T04:35:19.348Z,13.20
2022-07-28T04:37:48.612Z,13.23
2022-07-28T04:40:15.640Z,13.24
2022-07-28T04:42:42.711Z,13.23
2022-07-28T04:45:11.730Z,13.18
2022-07-28T04:47:39.122Z,13.16
2022-07-28T04:50:07.461Z,13.22
2022-07-28T04:52:34.004Z,13.21
2022-07-28T04:55:00.883Z,13.23
2022-07-28T04:57:29.862Z,13.25
2022-07-28T04:59:57.451Z,13.27
2022-07-28T05:02:24.335Z,13.29
2022-07-28T05:04:51.232Z,13.30
2022-07-28T05:07:18.135Z,13.34
2022-07-28T05:09:44.706Z,13.37
2022-07-28T05:12:11.478Z,13.38
2022-07-28T05:14:38.201Z,13.41
2022-07-28T05:17:04.794Z,13.44
2022-07-28T05:19:31.458Z,13.46
2022-07-28T05:21:57.971Z,13.50
2022-07-28T05:24:24.473Z,13.59
2022-07-28T05:26:50.980Z,13.66
2022-07-28T05:29:17.572Z,13.72
2022-07-28T05:31:44.131Z,13.77
2022-07-28T05:34:10.951Z,13.81
2022-07-28T05:36:39.317Z,13.89
2022-07-28T05:39:05.828Z,13.93
2022-07-28T05:41:32.433Z,13.98
2022-07-28T05:44:01.168Z,14.05
2022-07-28T05:46:28.420Z,14.09
2022-07-28T05:48:55.002Z,14.16
2022-07-28T05:51:21.664Z,14.22
2022-07-28T05:53:48.172Z,14.26
2022-07-28T05:56:14.687Z,14.33
2022-07-28T05:58:41.191Z,14.39
2022-07-28T06:01:07.846Z,14.47
2022-07-28T06:03:39.847Z,14.54
2022-07-28T06:06:16.078Z,14.62
2022-07-28T06:08:43.878Z,14.71
2022-07-28T06:11:11.651Z,14.81
2022-07-28T06:13:57.177Z,14.90
2022-07-28T06:16:23.905Z,14.97
2022-07-28T06:18:51.404Z,15.10
2022-07-28T06:21:18.006Z,15.24
2022-07-28T06:23:45.376Z,15.35
2022-07-28T06:26:11.881Z,15.45
2022-07-28T06:28:38.560Z,15.52
2022-07-28T06:31:05.269Z,15.61
2022-07-28T06:33:31.840Z,15.68
2022-07-28T06:35:58.436Z,15.82
2022-07-28T06:38:25.470Z,15.93
2022-07-28T06:40:52.055Z,15.94
2022-07-28T06:43:18.612Z,16.08
2022-07-28T06:45:45.798Z,16.22
2022-07-28T06:48:13.762Z,16.30
2022-07-28T06:50:42.040Z,16.35
2022-07-28T06:53:08.814Z,16.46
2022-07-28T06:55:36.070Z,16.49
2022-07-28T06:58:05.005Z,16.56
2022-07-28T07:00:32.377Z,16.66
2022-07-28T07:03:00.567Z,16.77
2022-07-28T07:05:30.007Z,16.86
2022-07-28T07:07:56.630Z,16.97
2022-07-28T07:10:23.584Z,17.04
2022-07-28T07:12:50.154Z,17.17
2022-07-28T07:15:16.672Z,17.23
2022-07-28T07:17:43.246Z,17.33
2022-07-28T07:20:10.959Z,17.40
2022-07-28T07:22:46.352Z,17.45
2022-07-28T07:25:18.585Z,17.54
2022-07-28T07:27:45.938Z,17.67
2022-07-28T07:30:13.685Z,17.77
2022-07-28T07:32:41.827Z,17.87
2022-07-28T07:35:09.347Z,17.93
2022-07-28T07:37:36.315Z,17.96
2022-07-28T07:40:05.021Z,18.02
2022-07-28T07:42:31.622Z,18.09
2022-07-28T07:44:58.173Z,18.15
2022-07-28T07:47:24.708Z,18.20
2022-07-28T07:49:51.752Z,18.28
2022-07-28T07:52:18.397Z,18.32
2022-07-28T07:54:45.576Z,18.39
2022-07-28T07:57:12.188Z,18.50
2022-07-28T07:59:38.731Z,18.59
2022-07-28T08:02:05.794Z,18.65
2022-07-28T08:04:37.386Z,18.71
2022-07-28T08:07:05.686Z,18.80
2022-07-28T08:09:32.705Z,18.88
2022-07-28T08:11:59.222Z,18.92
2022-07-28T08:14:25.761Z,19.02
2022-07-28T08:16:52.437Z,19.12
2022-07-28T08:19:21.514Z,19.21
2022-07-28T08:21:48.541Z,19.28
2022-07-28T08:24:17.729Z,19.31
2022-07-28T08:26:59.797Z,19.36
2022-07-28T08:29:26.342Z,19.46
2022-07-28T08:31:52.989Z,19.54
2022-07-28T08:34:26.392Z,19.65
2022-07-28T08:37:04.687Z,19.76
2022-07-28T08:39:33.005Z,19.88
2022-07-28T08:42:15.159Z,19.92
2022-07-28T08:44:50.159Z,20.01
2022-07-28T08:47:16.888Z,20.08
2022-07-28T08:49:43.729Z,20.21
2022-07-28T08:52:12.740Z,20.28
2022-07-28T08:54:45.337Z,20.31
2022-07-28T08:57:27.870Z,20.43
2022-07-28T08:59:55.496Z,20.59
2022-07-28T09:02:23.413Z,20.69
2022-07-28T09:04:50.916Z,20.81
2022-07-28T09:07:18.113Z,20.95
2022-07-28T09:09:48.195Z,21.07
2022-07-28T09:12:14.850Z,21.07
2022-07-28T09:14:41.911Z,21.10
2022-07-28T09:17:08.625Z,21.15
2022-07-28T09:19:37.593Z,21.22
2022-07-28T09:22:06.086Z,21.28
2022-07-28T09:24:41.600Z,21.35
2022-07-28T09:27:10.700Z,21.35
2022-07-28T09:29:38.517Z,21.42
2022-07-28T09:32:06.108Z,21.53
2022-07-28T09:34:48.743Z,21.52
2022-07-28T09:37:27.605Z,21.61
2022-07-28T09:39:59.472Z,21.66
2022-07-28T09:42:26.523Z,21.64
2022-07-28T09:45:22.330Z,21.76
2022-07-28T09:47:49.968Z,21.88
2022-07-28T09:50:27.680Z,22.00
2022-07-28T09:52:54.226Z,22.00
2022-07-28T09:55:20.762Z,21.88
2022-07-28T09:57:47.471Z,21.82
2022-07-28T10:00:27.828Z,21.82
2022-07-28T10:02:54.518Z,22.02
2022-07-28T10:05:21.220Z,22.20
2022-07-28T10:07:51.371Z,22.46
2022-07-28T10:10:21.079Z,22.68
2022-07-28T10:12:47.596Z,22.77
2022-07-28T10:15:35.828Z,22.91
2022-07-28T10:18:05.071Z,22.86
2022-07-28T10:20:33.110Z,22.95
2022-07-28T10:23:09.489Z,23.00
2022-07-28T10:25:40.109Z,23.17
2022-07-28T10:28:09.401Z,23.30
2022-07-28T10:30:41.100Z,23.39
2022-07-28T10:33:13.545Z,23.50
2022-07-28T10:35:48.537Z,23.73
2022-07-28T10:38:22.531Z,23.83
2022-07-28T10:40:50.738Z,24.13
2022-07-28T10:43:18.433Z,24.40
2022-07-28T10:46:05.190Z,24.58
2022-07-28T10:48:33.593Z,24.69
2022-07-28T10:51:00.876Z,24.62
2022-07-28T10:53:35.066Z,24.68
2022-07-28T10:56:12.241Z,24.67
2022-07-28T10:58:54.571Z,24.71
2022-07-28T11:01:48.443Z,24.90
2022-07-28T11:04:41.115Z,24.91
2022-07-28T11:07:17.781Z,24.74
2022-07-28T11:09:47.450Z,24.71
2022-07-28T11:12:17.260Z,24.55
2022-07-28T11:14:44.843Z,24.56
2022-07-28T11:17:16.609Z,24.61
2022-07-28T11:20:24.951Z,24.76
2022-07-28T11:22:40.012Z,24.95
2022-07-28T11:25:19.579Z,24.98
2022-07-28T11:27:51.335Z,25.01
2022-07-28T11:30:28.695Z,25.06
2022-07-28T11:32:55.307Z,25.16
2022-07-28T11:35:30.231Z,25.34
2022-07-28T11:38:02.901Z,25.44
2022-07-28T11:40:29.989Z,25.74
2022-07-28T11:43:22.546Z,25.79
2022-07-28T11:46:01.216Z,25.93
2022-07-28T11:48:31.218Z,26.17
2022-07-28T11:51:03.874Z,26.41
2022-07-28T11:53:38.189Z,26.64
2022-07-28T11:56:06.535Z,26.78
2022-07-28T11:58:33.147Z,26.66
2022-07-28T12:01:18.180Z,26.63
2022-07-28T12:03:54.041Z,26.76
2022-07-28T12:06:37.292Z,26.90
2022-07-28T12:09:08.972Z,27.06
2022-07-28T12:11:42.737Z,27.22
2022-07-28T12:14:09.197Z,27.54
2022-07-28T12:16:39.635Z,27.67
2022-07-28T12:19:08.223Z,27.79
2022-07-28T12:21:56.631Z,28.18
2022-07-28T12:24:28.717Z,28.23
2022-07-28T12:26:57.660Z,28.57
2022-07-28T12:29:32.181Z,28.39
2022-07-28T12:32:09.734Z,28.37
2022-07-28T12:34:44.360Z,28.50
2022-07-28T12:37:14.282Z,28.44
2022-07-28T12:39:43.193Z,28.65
2022-07-28T12:42:12.232Z,29.16
2022-07-28T12:44:43.846Z,29.55
2022-07-28T12:47:12.867Z,29.55
2022-07-28T12:49:41.893Z,29.63
2022-07-28T12:52:22.880Z,29.55
2022-07-28T12:54:54.717Z,29.12
2022-07-28T12:57:52.844Z,28.93
2022-07-28T13:00:23.061Z,28.70
2022-07-28T13:02:52.124Z,28.71
2022-07-28T13:05:28.564Z,28.92
2022-07-28T13:07:59.728Z,29.00
2022-07-28T13:10:30.198Z,29.16
2022-07-28T13:13:06.066Z,28.92
2022-07-28T13:15:33.353Z,28.73
2022-07-28T13:17:59.980Z,28.57
2022-07-28T13:20:26.928Z,28.45
2022-07-28T13:22:54.675Z,28.34
2022-07-28T13:25:21.620Z,28.24
2022-07-28T13:27:54.540Z,28.09
2022-07-28T13:30:22.789Z,28.10
2022-07-28T13:32:49.501Z,28.10
2022-07-28T13:35:18.831Z,28.08
2022-07-28T13:37:46.058Z,28.09
2022-07-28T13:40:12.983Z,28.34
2022-07-28T13:42:39.531Z,28.37
2022-07-28T13:45:06.527Z,30.05
2022-07-28T13:47:35.489Z,29.57
2022-07-28T13:50:05.980Z,29.18
2022-07-28T13:52:35.149Z,29.30
2022-07-28T13:55:06.043Z,29.00
2022-07-28T13:57:35.806Z,28.92
2022-07-28T14:00:07.581Z,28.82
2022-07-28T14:02:34.888Z,28.77
2022-07-28T14:05:01.626Z,28.65
2022-07-28T14:07:28.352Z,28.59
2022-07-28T14:09:55.171Z,28.61
2022-07-28T14:12:21.753Z,28.61
2022-07-28T14:14:49.038Z,28.57
2022-07-28T14:20:09.971Z,29.37
2022-07-28T14:22:36.544Z,29.37
2022-07-28T14:25:03.193Z,29.11
2022-07-28T14:27:29.903Z,28.75
2022-07-28T14:29:59.544Z,28.50
2022-07-28T14:32:30.282Z,28.28
2022-07-28T14:34:57.128Z,28.41
2022-07-28T14:37:23.636Z,28.43
2022-07-28T14:39:50.594Z,28.61
2022-07-28T14:42:17.100Z,28.35
2022-07-28T14:44:43.673Z,28.07
2022-07-28T14:47:10.374Z,27.80
2022-07-28T14:49:36.986Z,27.59
2022-07-28T14:52:04.428Z,27.76
2022-07-28T14:54:33.248Z,27.91
2022-07-28T14:56:59.870Z,28.02
2022-07-28T14:59:26.443Z,28.09
2022-07-28T15:01:53.118Z,28.17
2022-07-28T15:04:19.726Z,27.96
2022-07-28T15:06:47.398Z,27.74
2022-07-28T15:09:14.458Z,27.91
2022-07-28T15:11:41.945Z,28.16
2022-07-28T15:14:08.684Z,28.25
2022-07-28T15:16:36.136Z,28.17
2022-07-28T15:19:02.809Z,28.04
2022-07-28T15:21:34.330Z,28.00
2022-07-28T15:24:03.741Z,28.00
2022-07-28T15:26:30.297Z,28.02
2022-07-28T15:28:56.824Z,28.06
2022-07-28T15:31:25.539Z,28.13
2022-07-28T15:33:57.846Z,28.13
2022-07-28T15:36:25.608Z,28.03
2022-07-28T15:38:53.700Z,27.87
2022-07-28T15:41:20.608Z,27.90
2022-07-28T15:43:47.537Z,28.23
2022-07-28T15:46:14.554Z,28.19
2022-07-28T15:48:43.245Z,28.09
2022-07-28T15:51:10.868Z,28.05
2022-07-28T15:53:37.930Z,28.11
2022-07-28T15:56:05.165Z,28.09
2022-07-28T15:58:31.907Z,28.26
2022-07-28T16:00:59.397Z,28.60
2022-07-28T16:03:29.453Z,28.37
2022-07-28T16:05:56.083Z,28.10
2022-07-28T16:08:23.331Z,27.94
2022-07-28T16:10:51.587Z,28.07
2022-07-28T16:13:26.984Z,28.04
2022-07-28T16:16:10.301Z,27.88
2022-07-28T16:18:38.249Z,27.78
2022-07-28T16:21:06.779Z,27.75
2022-07-28T16:23:34.065Z,27.68
2022-07-28T16:26:01.072Z,27.55
2022-07-28T16:28:27.667Z,27.39
2022-07-28T16:30:54.697Z,27.28
2022-07-28T16:33:21.298Z,27.24
2022-07-28T16:35:48.311Z,27.17
2022-07-28T16:38:14.921Z,27.19
2022-07-28T16:40:41.585Z,27.20
2022-07-28T16:43:08.127Z,27.18
2022-07-28T16:45:35.446Z,27.12
2022-07-28T16:48:03.764Z,27.41
2022-07-28T16:50:31.258Z,27.68
2022-07-28T16:52:59.119Z,27.70
2022-07-28T16:55:26.245Z,27.62
2022-07-28T16:57:53.567Z,27.53
2022-07-28T17:00:21.398Z,27.43
2022-07-28T17:02:47.949Z,27.29
2022-07-28T17:05:14.590Z,27.24
2022-07-28T17:07:45.838Z,27.15
2022-07-28T17:10:15.322Z,26.96
2022-07-28T17:12:50.143Z,26.84
2022-07-28T17:15:21.782Z,26.78
2022-07-28T17:17:50.372Z,26.79
2022-07-28T17:20:17.107Z,26.77
2022-07-28T17:22:44.943Z,26.81
2022-07-28T17:25:35.239Z,26.68
2022-07-28T17:27:58.453Z,26.59
2022-07-28T17:30:25.353Z,26.54
2022-07-28T17:32:53.096Z,26.47
2022-07-28T17:35:34.141Z,26.42
2022-07-28T17:38:03.316Z,26.38
2022-07-28T17:40:30.025Z,26.37
2022-07-28T17:42:56.679Z,26.26
2022-07-28T17:45:24.382Z,26.18
2022-07-28T17:47:51.747Z,26.12
2022-07-28T17:50:18.716Z,26.07
2022-07-28T17:52:46.359Z,26.07
2022-07-28T17:55:34.468Z,26.07
2022-07-28T17:58:14.024Z,26.00
2022-07-28T18:00:50.251Z,25.90
2022-07-28T18:03:17.875Z,25.75
2022-07-28T18:05:44.920Z,25.71
2022-07-28T18:08:12.488Z,25.71
2022-07-28T18:10:39.237Z,25.70
2022-07-28T18:13:06.810Z,25.67
2022-07-28T18:15:37.131Z,25.55
2022-07-28T18:18:03.933Z,25.47
2022-07-28T18:20:31.241Z,25.43
2022-07-28T18:22:58.115Z,25.39
2022-07-28T18:25:29.046Z,25.35
2022-07-28T18:27:55.613Z,25.09
2022-07-28T18:30:23.243Z,24.85
2022-07-28T18:32:50.396Z,24.62
2022-07-28T18:35:18.013Z,24.42
2022-07-28T18:37:45.980Z,23.98
2022-07-28T18:40:14.578Z,22.98
2022-07-28T18:42:41.768Z,22.01
2022-07-28T18:45:09.711Z,21.04
2022-07-28T18:47:45.512Z,21.09
2022-07-28T18:50:27.871Z,20.87
2022-07-28T18:52:58.028Z,20.75
2022-07-28T18:55:24.641Z,20.90
2022-07-28T18:57:51.168Z,20.95
2022-07-28T19:00:17.827Z,21.04
2022-07-28T19:02:44.468Z,21.03
2022-07-28T19:05:11.142Z,20.96
2022-07-28T19:07:37.723Z,20.76
2022-07-28T19:10:04.840Z,20.63
2022-07-28T19:12:31.529Z,20.75
2022-07-28T19:14:58.819Z,20.80
2022-07-28T19:17:26.432Z,20.88
2022-07-28T19:19:56.077Z,20.78
2022-07-28T19:22:23.931Z,20.68
2022-07-28T19:24:50.637Z,20.62
2022-07-28T19:27:18.389Z,20.43
2022-07-28T19:29:45.141Z,20.24
2022-07-28T19:32:11.798Z,20.34
2022-07-28T19:34:38.291Z,20.39
2022-07-28T19:37:04.888Z,20.38
2022-07-28T19:39:34.371Z,20.30
2022-07-28T19:42:01.053Z,20.29
2022-07-28T19:44:30.037Z,20.28
2022-07-28T19:47:00.440Z,20.40
2022-07-28T19:49:27.250Z,20.34
2022-07-28T19:51:54.930Z,20.19
2022-07-28T19:54:23.277Z,20.22
2022-07-28T19:56:50.015Z,20.15
2022-07-28T19:59:16.566Z,20.17
2022-07-28T20:01:46.814Z,20.22
2022-07-28T20:04:13.811Z,20.22
2022-07-28T20:06:40.343Z,20.07
2022-07-28T20:09:07.090Z,20.09
2022-07-28T20:11:33.810Z,19.94
2022-07-28T20:14:01.228Z,20.03
2022-07-28T20:16:28.037Z,20.10
2022-07-28T20:18:54.790Z,20.08
2022-07-28T20:21:22.165Z,20.05
2022-07-28T20:23:49.173Z,20.07
2022-07-28T20:26:17.221Z,20.10
2022-07-28T20:28:50.002Z,20.09
2022-07-28T20:31:17.237Z,20.10
2022-07-28T20:33:43.924Z,20.09
2022-07-28T20:36:10.535Z,20.11
2022-07-28T20:38:37.110Z,20.06
2022-07-28T20:41:06.495Z,20.03
2022-07-28T20:43:37.138Z,20.03
2022-07-28T20:46:05.513Z,20.04
2022-07-28T20:48:32.484Z,20.05
2022-07-28T20:50:59.108Z,20.04
2022-07-28T20:53:25.676Z,20.03
2022-07-28T20:55:52.240Z,19.99
2022-07-28T20:58:18.836Z,19.80
2022-07-28T21:00:45.467Z,19.78
2022-07-28T21:03:12.088Z,19.77
2022-07-28T21:05:38.896Z,19.82
2022-07-28T21:08:09.509Z,19.82
2022-07-28T21:10:43.056Z,19.77
2022-07-28T21:13:09.557Z,19.73
2022-07-28T21:15:36.120Z,19.73
2022-07-28T21:18:06.471Z,19.72
2022-07-28T21:20:33.144Z,19.75
2022-07-28T21:22:59.704Z,19.75
2022-07-28T21:25:26.319Z,19.72
2022-07-28T21:28:11.434Z,19.60
2022-07-28T21:30:38.102Z,19.51
2022-07-28T21:33:04.645Z,19.49
2022-07-28T21:35:31.248Z,19.50
2022-07-28T21:37:58.326Z,19.56
2022-07-28T21:40:26.017Z,19.48
2022-07-28T21:42:52.722Z,19.59
2022-07-28T21:45:19.484Z,19.64
2022-07-28T21:47:46.199Z,19.64
2022-07-28T21:50:13.564Z,19.62
2022-07-28T21:52:40.255Z,19.60
2022-07-28T21:55:08.729Z,19.60
2022-07-28T21:57:35.920Z,19.62
2022-07-28T22:00:05.301Z,19.60
2022-07-28T22:02:32.443Z,19.39
2022-07-28T22:04:59.498Z,19.35
2022-07-28T22:07:26.133Z,19.29
2022-07-28T22:09:52.634Z,19.04
2022-07-28T22:12:19.591Z,19.07
2022-07-28T22:14:46.111Z,19.14
2022-07-28T22:17:12.640Z,19.12
2022-07-28T22:19:39.283Z,19.08
2022-07-28T22:22:05.829Z,19.09
2022-07-28T22:24:32.344Z,19.12
2022-07-28T22:26:59.419Z,19.15
2022-07-28T22:29:25.965Z,19.13
2022-07-28T22:31:57.303Z,19.11
2022-07-28T22:34:25.939Z,19.07
2022-07-28T22:36:52.482Z,19.02
2022-07-28T22:39:19.340Z,19.02
2022-07-28T22:41:46.915Z,18.98
2022-07-28T22:44:13.838Z,18.83
2022-07-28T22:46:40.792Z,18.70
2022-07-28T22:49:07.423Z,18.63
2022-07-28T22:51:34.001Z,18.64
2022-07-28T22:54:00.560Z,18.62
2022-07-28T22:56:27.130Z,18.65
2022-07-28T22:59:01.544Z,18.65
2022-07-28T23:01:28.210Z,18.59
2022-07-28T23:03:55.047Z,18.58
2022-07-28T23:06:21.783Z,18.45
2022-07-28T23:08:48.403Z,18.38
2022-07-28T23:11:14.944Z,18.32
2022-07-28T23:13:41.479Z,18.27
2022-07-28T23:16:09.578Z,18.33
2022-07-28T23:18:42.159Z,18.35
2022-07-28T23:21:09.091Z,18.33
2022-07-28T23:23:36.112Z,18.32
2022-07-28T23:26:02.763Z,18.29
2022-07-28T23:28:29.558Z,18.24
2022-07-28T23:30:56.782Z,18.25
2022-07-28T23:33:54.588Z,18.20
2022-07-28T23:36:14.798Z,17.98
2022-07-28T23:38:53.035Z,17.81
2022-07-28T23:41:19.570Z,17.72
2022-07-28T23:43:46.104Z,17.66
2022-07-28T23:46:12.672Z,17.66
2022-07-28T23:48:39.269Z,17.60
2022-07-28T23:51:05.908Z,17.66
2022-07-28T23:53:32.405Z,17.72
2022-07-28T23:55:59.215Z,17.77
2022-07-28T23:58:25.754Z,17.76
